createdAt,value
2023-05-03T00:00:02.987Z,91.41
2023-05-03T00:01:02.304Z,91.41
2023-05-03T00:02:03.643Z,91.51
2023-05-03T00:03:03.763Z,91.82
2023-05-03T00:04:03.356Z,91.20
2023-05-03T00:05:04.779Z,91.72
2023-05-03T00:06:03.809Z,92.03
2023-05-03T00:07:03.014Z,92.34
2023-05-03T00:08:02.902Z,92.03
2023-05-03T00:09:02.572Z,91.61
2023-05-03T00:10:03.219Z,92.65
2023-05-03T00:11:02.548Z,91.93
2023-05-03T00:12:03.131Z,91.20
2023-05-03T00:13:03.329Z,90.58
2023-05-03T00:14:03.465Z,89.44
2023-05-03T00:15:03.192Z,89.23
2023-05-03T00:16:03.024Z,88.92
2023-05-03T00:17:03.080Z,89.03
2023-05-03T00:18:03.081Z,88.71
2023-05-03T00:19:02.636Z,90.26
2023-05-03T00:20:02.667Z,90.47
2023-05-03T00:21:03.101Z,90.99
2023-05-03T00:22:03.263Z,91.41
2023-05-03T00:23:02.938Z,91.72
2023-05-03T00:24:02.983Z,91.86
2023-05-03T00:25:02.578Z,92.03
2023-05-03T00:26:02.574Z,91.82
2023-05-03T00:27:03.305Z,90.78
2023-05-03T00:28:03.245Z,91.24
2023-05-03T00:29:03.278Z,92.07
2023-05-03T00:30:03.522Z,91.97
2023-05-03T00:31:03.143Z,91.97
2023-05-03T00:32:02.985Z,91.66
2023-05-03T00:33:02.956Z,91.86
2023-05-03T00:34:02.851Z,92.18
2023-05-03T00:35:03.128Z,91.03
2023-05-03T00:36:02.938Z,92.28
2023-05-03T00:37:02.937Z,91.35
2023-05-03T00:38:02.869Z,89.79
2023-05-03T00:39:03.194Z,89.79
2023-05-03T00:40:03.510Z,88.86
2023-05-03T00:41:03.258Z,88.34
2023-05-03T00:42:03.065Z,88.96
2023-05-03T00:43:03.195Z,89.48
2023-05-03T00:44:02.991Z,88.34
2023-05-03T00:45:02.790Z,87.93
2023-05-03T00:46:15.238Z,87.93
2023-05-03T00:47:03.047Z,87.51
2023-05-03T00:48:03.607Z,88.24
2023-05-03T00:49:03.132Z,87.82
2023-05-03T00:50:03.320Z,87.66
2023-05-03T00:51:02.984Z,88.59
2023-05-03T00:52:02.883Z,89.73
2023-05-03T00:53:02.706Z,88.39
2023-05-03T00:54:02.719Z,89.83
2023-05-03T00:55:02.601Z,91.39
2023-05-03T00:56:02.666Z,92.11
2023-05-03T00:57:03.232Z,91.70
2023-05-03T00:58:03.657Z,92.53
2023-05-03T00:59:03.163Z,91.80
2023-05-03T01:00:03.774Z,92.53
2023-05-03T01:01:03.482Z,92.98
2023-05-03T01:02:02.365Z,93.29
2023-05-03T01:03:02.807Z,93.40
2023-05-03T01:04:02.337Z,92.88
2023-05-03T01:05:02.431Z,93.08
2023-05-03T01:06:02.418Z,92.98
2023-05-03T01:07:02.159Z,92.78
2023-05-03T01:08:02.201Z,92.78
2023-05-03T01:09:02.695Z,92.78
2023-05-03T01:10:02.624Z,93.50
2023-05-03T01:11:02.551Z,93.71
2023-05-03T01:12:02.399Z,92.88
2023-05-03T01:13:02.294Z,93.08
2023-05-03T01:14:02.914Z,93.65
2023-05-03T01:15:02.565Z,94.17
2023-05-03T01:16:02.967Z,94.48
2023-05-03T01:17:02.417Z,94.48
2023-05-03T01:18:02.480Z,94.58
2023-05-03T01:19:02.424Z,94.68
2023-05-03T01:20:02.460Z,94.79
2023-05-03T01:21:02.251Z,93.96
2023-05-03T01:22:02.813Z,94.37
2023-05-03T01:23:02.828Z,93.33
2023-05-03T01:24:03.129Z,92.61
2023-05-03T01:25:02.837Z,93.33
2023-05-03T01:26:03.153Z,92.20
2023-05-03T01:27:02.728Z,91.68
2023-05-03T01:28:02.240Z,91.68
2023-05-03T01:29:02.105Z,91.68
2023-05-03T01:30:02.489Z,91.99
2023-05-03T01:31:02.158Z,91.27
2023-05-03T01:32:02.791Z,91.27
2023-05-03T01:33:02.640Z,92.51
2023-05-03T01:34:02.675Z,92.30
2023-05-03T01:35:02.601Z,92.61
2023-05-03T01:36:02.876Z,92.72
2023-05-03T01:37:02.612Z,92.72
2023-05-03T01:38:03.025Z,92.93
2023-05-03T01:39:02.604Z,93.85
2023-05-03T01:40:02.706Z,93.96
2023-05-03T01:41:03.033Z,94.17
2023-05-03T01:42:02.234Z,93.75
2023-05-03T01:43:02.750Z,93.54
2023-05-03T01:44:02.404Z,92.41
2023-05-03T01:45:02.752Z,91.78
2023-05-03T01:46:02.389Z,91.68
2023-05-03T01:47:02.933Z,92.20
2023-05-03T01:48:02.822Z,93.13
2023-05-03T01:49:02.797Z,92.61
2023-05-03T01:50:03.044Z,93.65
2023-05-03T01:51:03.110Z,93.96
2023-05-03T01:52:02.528Z,93.65
2023-05-03T01:53:02.361Z,93.65
2023-05-03T01:54:02.175Z,93.96
2023-05-03T01:55:02.112Z,93.65
2023-05-03T01:56:02.349Z,93.96
2023-05-03T01:57:02.734Z,93.75
2023-05-03T01:58:02.581Z,93.02
2023-05-03T01:59:02.659Z,92.30
2023-05-03T02:00:02.757Z,92.72
2023-05-03T02:01:02.311Z,92.82
2023-05-03T02:02:02.713Z,92.76
2023-05-03T02:03:02.717Z,92.76
2023-05-03T02:04:03.056Z,92.97
2023-05-03T02:05:02.965Z,92.97
2023-05-03T02:06:02.638Z,92.80
2023-05-03T02:07:03.226Z,93.74
2023-05-03T02:08:02.956Z,94.05
2023-05-03T02:09:02.991Z,93.84
2023-05-03T02:10:02.923Z,93.74
2023-05-03T02:11:03.157Z,94.05
2023-05-03T02:12:02.629Z,94.26
2023-05-03T02:13:02.692Z,94.61
2023-05-03T02:14:02.198Z,95.03
2023-05-03T02:15:02.740Z,95.54
2023-05-03T02:16:02.102Z,95.23
2023-05-03T02:17:02.237Z,95.54
2023-05-03T02:18:02.773Z,95.75
2023-05-03T02:19:02.568Z,95.75
2023-05-03T02:20:02.697Z,95.65
2023-05-03T02:21:02.347Z,95.65
2023-05-03T02:22:02.955Z,95.44
2023-05-03T02:23:02.864Z,95.54
2023-05-03T02:24:02.467Z,95.54
2023-05-03T02:25:02.769Z,95.23
2023-05-03T02:26:02.717Z,94.88
2023-05-03T02:27:02.304Z,94.36
2023-05-03T02:28:02.056Z,93.32
2023-05-03T02:29:01.926Z,92.90
2023-05-03T02:30:02.118Z,92.28
2023-05-03T02:31:01.875Z,91.86
2023-05-03T02:32:02.291Z,91.45
2023-05-03T02:33:02.035Z,91.35
2023-05-03T02:34:01.930Z,91.97
2023-05-03T02:35:01.746Z,93.01
2023-05-03T02:36:02.269Z,91.35
2023-05-03T02:37:02.223Z,91.28
2023-05-03T02:38:02.396Z,91.49
2023-05-03T02:39:02.352Z,92.01
2023-05-03T02:40:02.686Z,91.60
2023-05-03T02:41:02.201Z,91.70
2023-05-03T02:42:02.404Z,91.18
2023-05-03T02:43:02.778Z,90.77
2023-05-03T02:44:02.716Z,91.39
2023-05-03T02:45:02.275Z,92.68
2023-05-03T02:46:02.387Z,93.30
2023-05-03T02:47:02.447Z,92.88
2023-05-03T02:48:02.433Z,92.16
2023-05-03T02:49:02.298Z,91.95
2023-05-03T02:50:02.523Z,91.39
2023-05-03T02:51:02.394Z,91.39
2023-05-03T02:52:02.485Z,91.12
2023-05-03T02:53:01.868Z,92.05
2023-05-03T02:54:01.968Z,92.57
2023-05-03T02:55:02.478Z,92.78
2023-05-03T02:56:02.006Z,92.47
2023-05-03T02:57:02.668Z,91.85
2023-05-03T02:58:02.526Z,91.74
2023-05-03T02:59:02.987Z,92.05
2023-05-03T03:00:02.966Z,92.36
2023-05-03T03:01:02.646Z,92.68
2023-05-03T03:02:03.273Z,93.30
2023-05-03T03:03:02.715Z,92.99
2023-05-03T03:04:02.686Z,92.05
2023-05-03T03:05:02.607Z,91.33
2023-05-03T03:06:02.908Z,91.02
2023-05-03T03:07:02.989Z,90.70
2023-05-03T03:08:03.240Z,91.64
2023-05-03T03:09:03.093Z,92.47
2023-05-03T03:10:03.046Z,92.68
2023-05-03T03:11:02.984Z,92.88
2023-05-03T03:12:02.810Z,93.20
2023-05-03T03:13:03.020Z,91.43
2023-05-03T03:14:02.829Z,91.12
2023-05-03T03:15:03.134Z,91.12
2023-05-03T03:16:03.090Z,91.47
2023-05-03T03:17:02.166Z,92.10
2023-05-03T03:18:02.653Z,92.86
2023-05-03T03:19:02.645Z,93.18
2023-05-03T03:20:02.953Z,92.72
2023-05-03T03:21:02.726Z,91.99
2023-05-03T03:22:02.233Z,91.68
2023-05-03T03:23:02.731Z,92.72
2023-05-03T03:24:02.526Z,91.89
2023-05-03T03:25:02.333Z,91.68
2023-05-03T03:26:02.884Z,90.75
2023-05-03T03:27:02.553Z,90.64
2023-05-03T03:28:02.926Z,90.54
2023-05-03T03:29:02.678Z,91.20
2023-05-03T03:30:03.253Z,91.72
2023-05-03T03:31:03.144Z,91.62
2023-05-03T03:32:02.699Z,91.31
2023-05-03T03:33:02.847Z,91.00
2023-05-03T03:34:03.154Z,90.89
2023-05-03T03:35:03.318Z,91.10
2023-05-03T03:36:02.751Z,91.20
2023-05-03T03:37:02.766Z,90.58
2023-05-03T03:38:03.197Z,90.89
2023-05-03T03:39:03.109Z,91.20
2023-05-03T03:40:02.970Z,92.14
2023-05-03T03:41:02.995Z,92.29
2023-05-03T03:42:02.280Z,92.70
2023-05-03T03:43:02.658Z,93.74
2023-05-03T03:44:02.438Z,93.95
2023-05-03T03:45:02.429Z,94.41
2023-05-03T03:46:02.668Z,94.82
2023-05-03T03:47:02.580Z,94.89
2023-05-03T03:48:03.123Z,94.47
2023-05-03T03:49:02.498Z,94.16
2023-05-03T03:50:03.128Z,94.06
2023-05-03T03:51:02.877Z,93.64
2023-05-03T03:52:03.266Z,93.54
2023-05-03T03:53:02.787Z,94.06
2023-05-03T03:54:03.276Z,94.47
2023-05-03T03:55:03.011Z,94.32
2023-05-03T03:56:02.873Z,94.06
2023-05-03T03:57:02.388Z,94.16
2023-05-03T03:58:02.520Z,94.37
2023-05-03T03:59:02.476Z,95.20
2023-05-03T04:00:02.796Z,95.51
2023-05-03T04:01:02.131Z,95.83
2023-05-03T04:02:02.703Z,95.51
2023-05-03T04:03:04.114Z,95.30
2023-05-03T04:04:03.333Z,95.20
2023-05-03T04:05:02.748Z,95.83
2023-05-03T04:06:02.797Z,96.03
2023-05-03T04:07:02.746Z,96.14
2023-05-03T04:08:02.749Z,96.66
2023-05-03T04:09:02.554Z,96.14
2023-05-03T04:10:03.139Z,96.55
2023-05-03T04:11:02.702Z,95.83
2023-05-03T04:12:02.476Z,95.83
2023-05-03T04:13:02.314Z,96.24
2023-05-03T04:14:02.855Z,96.24
2023-05-03T04:15:02.759Z,96.24
2023-05-03T04:16:04.563Z,95.83
2023-05-03T04:17:02.561Z,95.83
2023-05-03T04:18:02.891Z,95.40
2023-05-03T04:19:02.409Z,95.30
2023-05-03T04:20:02.543Z,95.20
2023-05-03T04:21:02.308Z,95.72
2023-05-03T04:22:03.072Z,95.72
2023-05-03T04:23:02.573Z,95.20
2023-05-03T04:24:02.766Z,95.15
2023-05-03T04:25:02.707Z,94.84
2023-05-03T04:26:04.692Z,94.84
2023-05-03T04:27:03.126Z,93.70
2023-05-03T04:28:03.289Z,93.74
2023-05-03T04:29:03.035Z,94.10
2023-05-03T04:30:03.568Z,94.93
2023-05-03T04:31:03.566Z,95.60
2023-05-03T04:32:02.299Z,96.28
2023-05-03T04:33:02.153Z,96.53
2023-05-03T04:34:02.328Z,97.06
2023-05-03T04:35:02.601Z,97.47
2023-05-03T04:36:02.512Z,97.78
2023-05-03T04:37:02.378Z,97.33
2023-05-03T04:38:02.321Z,97.12
2023-05-03T04:39:02.331Z,96.70
2023-05-03T04:40:02.791Z,96.08
2023-05-03T04:41:02.098Z,95.76
2023-05-03T04:42:02.969Z,95.30
2023-05-03T04:43:03.048Z,96.24
2023-05-03T04:44:03.129Z,96.14
2023-05-03T04:45:03.119Z,96.76
2023-05-03T04:46:02.928Z,96.55
2023-05-03T04:47:02.792Z,96.76
2023-05-03T04:48:03.198Z,96.34
2023-05-03T04:49:02.846Z,96.30
2023-05-03T04:50:03.014Z,95.78
2023-05-03T04:51:02.917Z,95.57
2023-05-03T04:52:02.772Z,95.47
2023-05-03T04:53:02.549Z,96.20
2023-05-03T04:54:02.516Z,95.26
2023-05-03T04:55:02.714Z,95.05
2023-05-03T04:56:02.303Z,95.36
2023-05-03T04:57:03.276Z,95.78
2023-05-03T04:58:02.947Z,95.89
2023-05-03T04:59:03.191Z,95.99
2023-05-03T05:00:03.120Z,96.20
2023-05-03T05:01:03.078Z,96.20
2023-05-03T05:02:02.779Z,96.41
2023-05-03T05:03:02.936Z,96.20
2023-05-03T05:04:02.521Z,95.26
2023-05-03T05:05:02.381Z,95.11
2023-05-03T05:06:02.756Z,95.53
2023-05-03T05:07:02.519Z,96.04
2023-05-03T05:08:02.637Z,95.94
2023-05-03T05:09:02.782Z,94.80
2023-05-03T05:10:02.964Z,94.49
2023-05-03T05:11:02.667Z,94.34
2023-05-03T05:12:02.161Z,93.93
2023-05-03T05:13:02.290Z,93.72
2023-05-03T05:14:02.191Z,93.72
2023-05-03T05:15:02.183Z,93.72
2023-05-03T05:16:02.332Z,93.68
2023-05-03T05:17:02.766Z,93.37
2023-05-03T05:18:02.797Z,93.37
2023-05-03T05:19:02.569Z,93.12
2023-05-03T05:20:02.789Z,92.90
2023-05-03T05:21:02.603Z,93.01
2023-05-03T05:22:02.139Z,92.97
2023-05-03T05:23:02.009Z,92.86
2023-05-03T05:24:01.922Z,92.86
2023-05-03T05:25:01.798Z,93.59
2023-05-03T05:26:01.676Z,93.80
2023-05-03T05:27:02.403Z,94.01
2023-05-03T05:28:02.213Z,93.80
2023-05-03T05:29:01.885Z,93.75
2023-05-03T05:30:02.225Z,93.65
2023-05-03T05:31:02.026Z,93.19
2023-05-03T05:32:02.529Z,93.08
2023-05-03T05:33:02.542Z,92.78
2023-05-03T05:34:02.716Z,92.88
2023-05-03T05:35:02.500Z,92.84
2023-05-03T05:36:02.121Z,92.80
2023-05-03T05:37:01.697Z,92.38
2023-05-03T05:38:01.551Z,91.76
2023-05-03T05:39:01.885Z,91.97
2023-05-03T05:40:01.742Z,92.18
2023-05-03T05:41:01.575Z,92.49
2023-05-03T05:42:02.413Z,92.34
2023-05-03T05:43:02.161Z,92.55
2023-05-03T05:44:02.279Z,92.03
2023-05-03T05:45:01.838Z,91.67
2023-05-03T05:46:01.874Z,91.57
2023-05-03T05:47:02.818Z,91.67
2023-05-03T05:48:02.756Z,91.67
2023-05-03T05:49:02.616Z,91.99
2023-05-03T05:50:04.526Z,92.19
2023-05-03T05:51:02.482Z,92.30
2023-05-03T05:52:02.092Z,92.30
2023-05-03T05:53:01.788Z,92.40
2023-05-03T05:54:01.980Z,92.15
2023-05-03T05:55:02.246Z,91.74
2023-05-03T05:56:02.336Z,91.59
2023-05-03T05:57:02.380Z,91.69
2023-05-03T05:58:02.548Z,91.49
2023-05-03T05:59:02.351Z,91.69
2023-05-03T06:00:02.631Z,91.34
2023-05-03T06:01:02.237Z,91.03
2023-05-03T06:02:02.683Z,91.20
2023-05-03T06:03:02.481Z,90.02
2023-05-03T06:04:02.309Z,89.29
2023-05-03T06:05:02.421Z,88.78
2023-05-03T06:06:02.636Z,88.47
2023-05-03T06:07:02.466Z,88.68
2023-05-03T06:08:02.397Z,89.15
2023-05-03T06:09:09.813Z,88.43
2023-05-03T06:10:02.435Z,88.53
2023-05-03T06:11:02.266Z,88.39
2023-05-03T06:12:02.526Z,88.39
2023-05-03T06:13:02.587Z,87.93
2023-05-03T06:14:02.392Z,87.21
2023-05-03T06:15:03.290Z,86.70
2023-05-03T06:16:02.306Z,86.60
2023-05-03T06:17:02.453Z,87.38
2023-05-03T06:18:02.877Z,87.24
2023-05-03T06:19:02.227Z,87.40
2023-05-03T06:20:02.720Z,85.82
2023-05-03T06:21:02.288Z,84.99
2023-05-03T06:22:02.479Z,83.83
2023-05-03T06:23:02.917Z,82.69
2023-05-03T06:24:03.031Z,82.34
2023-05-03T06:25:02.531Z,80.39
2023-05-03T06:26:02.522Z,80.60
2023-05-03T06:27:01.915Z,80.56
2023-05-03T06:28:02.036Z,80.77
2023-05-03T06:29:02.182Z,80.66
2023-05-03T06:30:02.252Z,79.29
2023-05-03T06:31:02.014Z,79.60
2023-05-03T06:32:01.676Z,79.19
2023-05-03T06:33:01.636Z,78.94
2023-05-03T06:34:01.684Z,79.56
2023-05-03T06:35:01.586Z,80.24
2023-05-03T06:36:02.000Z,79.73
2023-05-03T06:37:02.047Z,80.14
2023-05-03T06:38:02.256Z,77.74
2023-05-03T06:39:01.905Z,76.51
2023-05-03T06:40:02.306Z,75.76
2023-05-03T06:41:02.215Z,75.35
2023-05-03T06:42:02.160Z,74.84
2023-05-03T06:43:02.090Z,74.53
2023-05-03T06:44:02.143Z,73.57
2023-05-03T06:45:02.113Z,73.30
2023-05-03T06:46:02.444Z,73.57
2023-05-03T06:47:02.542Z,74.29
2023-05-03T06:48:03.075Z,74.29
2023-05-03T06:49:02.965Z,73.57
2023-05-03T06:50:02.801Z,74.19
2023-05-03T06:51:02.555Z,75.11
2023-05-03T06:52:01.736Z,74.46
2023-05-03T06:53:02.132Z,74.46
2023-05-03T06:54:01.851Z,73.95
2023-05-03T06:55:01.744Z,72.99
2023-05-03T06:56:01.688Z,73.81
2023-05-03T06:57:01.872Z,72.65
2023-05-03T06:58:02.116Z,72.75
2023-05-03T06:59:02.281Z,72.75
2023-05-03T07:00:02.071Z,72.21
2023-05-03T07:01:01.985Z,71.08
2023-05-03T07:02:02.076Z,71.39
2023-05-03T07:03:02.273Z,71.08
2023-05-03T07:04:02.528Z,71.05
2023-05-03T07:05:01.959Z,71.15
2023-05-03T07:06:02.067Z,71.56
2023-05-03T07:07:02.553Z,72.07
2023-05-03T07:08:02.345Z,71.12
2023-05-03T07:09:02.723Z,70.20
2023-05-03T07:10:02.353Z,69.89
2023-05-03T07:11:02.208Z,70.30
2023-05-03T07:12:02.040Z,69.69
2023-05-03T07:13:01.972Z,69.59
2023-05-03T07:14:02.015Z,70.57
2023-05-03T07:15:01.858Z,71.09
2023-05-03T07:16:03.678Z,70.03
2023-05-03T07:17:02.471Z,70.34
2023-05-03T07:18:02.353Z,70.85
2023-05-03T07:19:02.499Z,68.60
2023-05-03T07:20:02.302Z,68.98
2023-05-03T07:21:02.360Z,68.06
2023-05-03T07:22:01.827Z,67.76
2023-05-03T07:23:01.998Z,67.65
2023-05-03T07:24:01.898Z,68.37
2023-05-03T07:25:01.919Z,68.84
2023-05-03T07:26:01.876Z,68.03
2023-05-03T07:27:02.461Z,67.62
2023-05-03T07:28:02.823Z,68.74
2023-05-03T07:29:02.262Z,67.79
2023-05-03T07:30:02.494Z,66.88
2023-05-03T07:31:02.398Z,67.86
2023-05-03T07:32:01.755Z,67.66
2023-05-03T07:33:02.005Z,68.07
2023-05-03T07:34:02.133Z,64.60
2023-05-03T07:35:02.041Z,66.74
2023-05-03T07:36:02.044Z,66.23
2023-05-03T07:37:02.367Z,65.39
2023-05-03T07:38:02.151Z,66.20
2023-05-03T07:39:02.150Z,65.19
2023-05-03T07:40:02.493Z,65.39
2023-05-03T07:41:02.073Z,65.19
2023-05-03T07:42:02.754Z,65.36
2023-05-03T07:43:02.901Z,64.03
2023-05-03T07:44:02.912Z,64.00
2023-05-03T07:45:02.470Z,62.98
2023-05-03T07:46:02.565Z,64.31
2023-05-03T07:47:01.880Z,63.49
2023-05-03T07:48:02.017Z,61.66
2023-05-03T07:49:01.856Z,63.46
2023-05-03T07:50:02.316Z,63.77
2023-05-03T07:51:01.529Z,62.35
2023-05-03T07:52:02.473Z,62.24
2023-05-03T07:53:02.621Z,62.62
2023-05-03T07:54:02.409Z,61.91
2023-05-03T07:55:02.634Z,62.39
2023-05-03T07:56:02.584Z,61.57
2023-05-03T07:57:02.486Z,60.15
2023-05-03T07:58:02.307Z,60.25
2023-05-03T08:00:02.870Z,60.66
2023-05-03T08:01:02.545Z,60.56
2023-05-03T08:02:03.221Z,59.03
2023-05-03T08:03:03.265Z,60.25
2023-05-03T08:04:03.021Z,60.36
2023-05-03T08:05:03.256Z,60.46
2023-05-03T08:06:03.122Z,60.46
2023-05-03T08:07:03.598Z,60.43
2023-05-03T08:08:03.522Z,60.02
2023-05-03T08:09:03.256Z,60.74
2023-05-03T08:10:03.503Z,60.94
2023-05-03T08:11:03.399Z,60.33
2023-05-03T08:12:03.718Z,60.13
2023-05-03T08:13:03.401Z,59.92
2023-05-03T08:14:03.469Z,60.33
2023-05-03T08:15:03.454Z,61.52
2023-05-03T08:16:03.549Z,60.71
2023-05-03T08:17:02.871Z,61.08
2023-05-03T08:18:02.831Z,59.94
2023-05-03T08:19:02.937Z,58.34
2023-05-03T08:20:03.219Z,58.14
2023-05-03T08:21:02.414Z,58.14
2023-05-03T08:22:03.239Z,57.86
2023-05-03T08:23:03.212Z,58.88
2023-05-03T08:24:02.964Z,59.69
2023-05-03T08:25:03.331Z,58.47
2023-05-03T08:26:02.877Z,57.93
2023-05-03T08:27:03.790Z,59.05
2023-05-03T08:28:03.250Z,59.05
2023-05-03T08:29:03.421Z,58.82
2023-05-03T08:30:04.181Z,58.72
2023-05-03T08:31:03.497Z,58.62
2023-05-03T08:32:03.169Z,59.10
2023-05-03T08:33:03.270Z,59.10
2023-05-03T08:34:03.076Z,57.65
2023-05-03T08:35:02.877Z,57.15
2023-05-03T08:36:02.928Z,57.17
2023-05-03T08:37:03.423Z,56.26
2023-05-03T08:38:02.939Z,57.17
2023-05-03T08:39:02.972Z,56.26
2023-05-03T08:40:03.340Z,56.18
2023-05-03T08:41:02.883Z,56.90
2023-05-03T08:42:03.082Z,57.88
2023-05-03T08:43:02.814Z,57.68
2023-05-03T08:44:03.115Z,56.95
2023-05-03T08:45:02.554Z,57.15
2023-05-03T08:46:02.711Z,56.31
2023-05-03T08:47:03.128Z,54.18
2023-05-03T08:48:03.753Z,54.38
2023-05-03T08:49:03.446Z,55.10
2023-05-03T08:50:03.700Z,54.18
2023-05-03T08:51:03.663Z,54.86
2023-05-03T08:52:02.626Z,54.26
2023-05-03T08:53:02.693Z,54.59
2023-05-03T08:54:02.632Z,54.18
2023-05-03T08:55:02.609Z,54.56
2023-05-03T08:56:02.684Z,52.74
2023-05-03T08:57:03.423Z,53.65
2023-05-03T08:58:03.014Z,52.84
2023-05-03T08:59:02.807Z,54.16
2023-05-03T09:00:03.462Z,53.65
2023-05-03T09:01:03.359Z,54.36
2023-05-03T09:02:03.013Z,53.34
2023-05-03T09:03:02.487Z,52.81
2023-05-03T09:04:02.985Z,53.93
2023-05-03T09:05:03.106Z,53.80
2023-05-03T09:06:02.566Z,51.90
2023-05-03T09:07:02.064Z,52.61
2023-05-03T09:08:02.244Z,53.05
2023-05-03T09:09:02.246Z,52.01
2023-05-03T09:10:02.487Z,51.81
2023-05-03T09:11:02.135Z,53.02
2023-05-03T09:12:02.192Z,53.93
2023-05-03T09:13:02.434Z,52.99
2023-05-03T09:14:02.536Z,50.46
2023-05-03T09:15:02.105Z,52.36
2023-05-03T09:16:02.626Z,51.86
2023-05-03T09:17:01.603Z,52.76
2023-05-03T09:18:01.834Z,52.56
2023-05-03T09:19:01.899Z,52.74
2023-05-03T09:20:02.085Z,52.44
2023-05-03T09:21:01.728Z,50.92
2023-05-03T09:22:02.021Z,51.23
2023-05-03T09:23:02.237Z,50.12
2023-05-03T09:24:01.853Z,51.12
2023-05-03T09:25:02.026Z,50.92
2023-05-03T09:26:02.027Z,52.34
2023-05-03T09:27:01.809Z,51.32
2023-05-03T09:28:02.315Z,51.12
2023-05-03T09:29:02.016Z,52.21
2023-05-03T09:30:02.318Z,52.21
2023-05-03T09:31:01.758Z,51.40
2023-05-03T09:32:02.302Z,50.80
2023-05-03T09:33:02.513Z,50.49
2023-05-03T09:34:02.134Z,51.61
2023-05-03T09:35:02.815Z,50.78
2023-05-03T09:36:02.121Z,50.29
2023-05-03T09:37:01.944Z,51.20
2023-05-03T09:38:01.773Z,50.57
2023-05-03T09:39:01.931Z,50.57
2023-05-03T09:40:02.021Z,51.07
2023-05-03T09:41:02.314Z,51.15
2023-05-03T09:42:02.112Z,49.13
2023-05-03T09:43:03.671Z,49.94
2023-05-03T09:44:02.357Z,50.12
2023-05-03T09:45:02.800Z,49.92
2023-05-03T09:46:02.106Z,48.91
2023-05-03T09:47:02.306Z,49.59
2023-05-03T09:48:02.236Z,50.60
2023-05-03T09:49:02.724Z,48.49
2023-05-03T09:50:02.471Z,48.69
2023-05-03T09:51:02.609Z,48.08
2023-05-03T09:52:01.848Z,48.30
2023-05-03T09:53:01.974Z,48.71
2023-05-03T09:54:01.662Z,48.22
2023-05-03T09:55:02.070Z,48.63
2023-05-03T09:56:02.078Z,49.56
2023-05-03T09:57:02.505Z,48.96
2023-05-03T09:58:02.660Z,49.94
2023-05-03T09:59:02.480Z,50.55
2023-05-03T10:00:02.454Z,51.45
2023-05-03T10:01:02.580Z,50.82
2023-05-03T10:02:03.017Z,51.03
2023-05-03T10:03:03.061Z,49.29
2023-05-03T10:04:03.085Z,49.39
2023-05-03T10:05:03.478Z,49.19
2023-05-03T10:06:03.081Z,49.59
2023-05-03T10:07:03.395Z,49.16
2023-05-03T10:08:03.567Z,48.36
2023-05-03T10:09:03.803Z,46.95
2023-05-03T10:10:03.192Z,47.78
2023-05-03T10:11:03.329Z,49.16
2023-05-03T10:12:03.038Z,50.05
2023-05-03T10:13:02.887Z,49.65
2023-05-03T10:14:02.903Z,48.44
2023-05-03T10:15:03.229Z,48.32
2023-05-03T10:16:03.370Z,46.40
2023-05-03T10:17:03.146Z,47.13
2023-05-03T10:18:03.165Z,46.91
2023-05-03T10:19:03.367Z,47.41
2023-05-03T10:20:03.600Z,46.91
2023-05-03T10:21:03.119Z,47.28
2023-05-03T10:22:03.536Z,47.59
2023-05-03T10:23:03.576Z,46.98
2023-05-03T10:24:03.467Z,46.38
2023-05-03T10:25:03.381Z,45.87
2023-05-03T10:26:03.289Z,44.69
2023-05-03T10:27:03.303Z,46.91
2023-05-03T10:28:03.627Z,47.28
2023-05-03T10:29:03.419Z,47.77
2023-05-03T10:30:03.683Z,45.25
2023-05-03T10:31:03.678Z,43.84
2023-05-03T10:32:02.695Z,45.98
2023-05-03T10:33:02.887Z,45.78
2023-05-03T10:34:03.069Z,45.65
2023-05-03T10:35:03.569Z,45.25
2023-05-03T10:36:03.102Z,45.75
2023-05-03T10:37:03.147Z,45.63
2023-05-03T10:38:03.336Z,45.41
2023-05-03T10:39:03.579Z,45.01
2023-05-03T10:40:03.391Z,43.10
2023-05-03T10:41:03.509Z,42.92
2023-05-03T10:42:02.811Z,43.42
2023-05-03T10:43:02.997Z,44.91
2023-05-03T10:44:02.422Z,45.51
2023-05-03T10:45:03.046Z,45.59
2023-05-03T10:46:02.930Z,44.67
2023-05-03T10:47:03.036Z,43.66
2023-05-03T10:48:03.196Z,44.18
2023-05-03T10:49:02.782Z,44.26
2023-05-03T10:50:03.026Z,43.66
2023-05-03T10:51:03.232Z,43.56
2023-05-03T10:52:02.821Z,45.17
2023-05-03T10:53:03.068Z,44.84
2023-05-03T10:54:03.378Z,44.24
2023-05-03T10:55:03.080Z,44.04
2023-05-03T10:56:03.426Z,42.13
2023-05-03T10:57:03.551Z,42.96
2023-05-03T10:58:03.240Z,43.48
2023-05-03T10:59:03.641Z,44.71
2023-05-03T11:00:03.621Z,44.31
2023-05-03T11:01:03.273Z,44.00
2023-05-03T11:02:02.917Z,45.53
2023-05-03T11:03:02.531Z,46.51
2023-05-03T11:04:03.120Z,45.21
2023-05-03T11:05:02.994Z,45.18
2023-05-03T11:06:02.651Z,45.39
2023-05-03T11:07:03.430Z,45.67
2023-05-03T11:08:03.302Z,45.65
2023-05-03T11:09:03.620Z,44.42
2023-05-03T11:10:03.550Z,44.22
2023-05-03T11:11:03.090Z,42.91
2023-05-03T11:12:03.218Z,42.83
2023-05-03T11:13:02.951Z,42.33
2023-05-03T11:14:03.057Z,41.65
2023-05-03T11:15:03.013Z,43.36
2023-05-03T11:16:03.252Z,43.26
2023-05-03T11:17:03.610Z,42.35
2023-05-03T11:18:03.706Z,43.24
2023-05-03T11:19:03.310Z,42.13
2023-05-03T11:20:03.476Z,42.94
2023-05-03T11:21:03.449Z,42.24
2023-05-03T11:22:03.062Z,42.13
2023-05-03T11:23:03.183Z,43.04
2023-05-03T11:24:02.973Z,42.54
2023-05-03T11:25:02.888Z,44.24
2023-05-03T11:26:02.769Z,42.41
2023-05-03T11:27:08.343Z,41.61
2023-05-03T11:28:03.844Z,44.82
2023-05-03T11:29:03.281Z,42.80
2023-05-03T11:30:03.041Z,41.21
2023-05-03T11:31:03.044Z,43.02
2023-05-03T11:32:03.164Z,42.61
2023-05-03T11:33:02.516Z,42.74
2023-05-03T11:34:02.576Z,44.04
2023-05-03T11:35:02.813Z,42.52
2023-05-03T11:36:03.032Z,41.63
2023-05-03T11:37:03.067Z,42.44
2023-05-03T11:38:02.903Z,42.41
2023-05-03T11:39:03.149Z,40.91
2023-05-03T11:40:02.560Z,41.61
2023-05-03T11:41:02.625Z,40.01
2023-05-03T11:42:03.125Z,43.32
2023-05-03T11:43:02.844Z,41.01
2023-05-03T11:44:15.425Z,42.19
2023-05-03T11:45:03.791Z,41.79
2023-05-03T11:46:03.012Z,40.49
2023-05-03T11:47:04.200Z,40.79
2023-05-03T11:48:03.851Z,40.59
2023-05-03T11:49:03.350Z,41.69
2023-05-03T11:50:03.583Z,40.57
2023-05-03T11:51:03.676Z,43.35
2023-05-03T11:52:03.915Z,41.93
2023-05-03T11:53:03.496Z,41.13
2023-05-03T11:54:13.041Z,41.53
2023-05-03T11:55:03.667Z,39.93
2023-05-03T11:56:03.401Z,40.53
2023-05-03T11:57:03.434Z,40.93
2023-05-03T11:58:03.316Z,39.23
2023-05-03T11:59:03.402Z,40.43
2023-05-03T12:00:03.209Z,41.13
2023-05-03T12:01:03.452Z,40.22
2023-05-03T12:02:02.323Z,39.59
2023-05-03T12:03:02.830Z,39.22
2023-05-03T12:04:02.771Z,40.61
2023-05-03T12:05:03.712Z,41.02
2023-05-03T12:06:03.363Z,41.11
2023-05-03T12:07:03.364Z,40.89
2023-05-03T12:08:02.861Z,40.39
2023-05-03T12:09:02.856Z,39.89
2023-05-03T12:11:03.910Z,39.07
2023-05-03T12:12:03.303Z,40.06
2023-05-03T12:13:05.141Z,37.96
2023-05-03T12:14:03.312Z,38.36
2023-05-03T12:15:04.062Z,37.38
2023-05-03T12:16:11.791Z,37.29
2023-05-03T12:17:02.967Z,37.90
2023-05-03T12:18:04.525Z,38.40
2023-05-03T12:19:03.610Z,38.68
2023-05-03T12:21:28.972Z,37.27
2023-05-03T12:23:04.073Z,38.57
2023-05-03T12:24:05.251Z,38.78
2023-05-03T12:25:04.312Z,37.96
2023-05-03T12:26:05.171Z,38.74
2023-05-03T12:27:03.358Z,38.92
2023-05-03T12:28:18.904Z,37.23
2023-05-03T12:29:02.779Z,37.01
2023-05-03T12:30:02.464Z,37.90
2023-05-03T12:31:04.995Z,37.60
2023-05-03T12:32:02.315Z,37.10
2023-05-03T12:33:04.858Z,36.49
2023-05-03T12:34:30.892Z,36.29
2023-05-03T12:35:03.452Z,34.99
2023-05-03T12:36:04.399Z,37.70
2023-05-03T12:37:04.478Z,37.51
2023-05-03T12:38:03.014Z,36.51
2023-05-03T12:39:03.034Z,37.02
2023-05-03T12:40:28.998Z,38.02
2023-05-03T12:41:02.701Z,39.92
2023-05-03T12:42:07.206Z,38.02
2023-05-03T12:43:03.178Z,38.00
2023-05-03T12:44:03.006Z,38.40
2023-05-03T12:45:04.728Z,37.60
2023-05-03T12:46:31.683Z,36.31
2023-05-03T12:47:03.387Z,36.21
2023-05-03T12:48:03.359Z,37.21
2023-05-03T12:49:06.807Z,36.59
2023-05-03T12:50:06.107Z,35.29
2023-05-03T12:51:18.597Z,34.69
2023-05-03T12:52:23.058Z,34.80
2023-05-03T12:53:03.298Z,35.71
2023-05-03T12:54:03.427Z,35.63
2023-05-03T12:55:03.998Z,36.82
2023-05-03T12:56:06.261Z,36.21